createdAt,value
2022-10-31T00:01:16.305Z,10.41
2022-10-31T00:03:42.745Z,10.38
2022-10-31T00:06:09.416Z,10.39
2022-10-31T00:08:35.804Z,10.38
2022-10-31T00:11:02.298Z,10.37
2022-10-31T00:13:28.837Z,10.36
2022-10-31T00:15:55.191Z,10.26
2022-10-31T00:18:21.523Z,10.18
2022-10-31T00:20:47.862Z,10.16
2022-10-31T00:23:14.233Z,10.15
2022-10-31T00:25:41.106Z,10.17
2022-10-31T00:28:09.977Z,10.19
2022-10-31T00:30:36.366Z,10.24
2022-10-31T00:33:05.609Z,10.20
2022-10-31T00:35:32.206Z,10.22
2022-10-31T00:37:58.647Z,10.17
2022-10-31T00:40:25.063Z,10.12
2022-10-31T00:42:51.453Z,10.06
2022-10-31T00:45:17.962Z,10.03
2022-10-31T00:47:44.310Z,10.06
2022-10-31T00:50:10.739Z,9.97
2022-10-31T00:52:37.062Z,9.88
2022-10-31T00:55:03.519Z,9.87
2022-10-31T00:57:29.865Z,9.83
2022-10-31T00:59:56.200Z,9.77
2022-10-31T01:02:22.843Z,9.77
2022-10-31T01:04:49.282Z,9.78
2022-10-31T01:07:15.690Z,9.81
2022-10-31T01:09:42.051Z,9.91
2022-10-31T01:12:08.949Z,9.96
2022-10-31T01:14:35.362Z,9.99
2022-10-31T01:17:01.879Z,9.81
2022-10-31T01:19:28.283Z,9.70
2022-10-31T01:21:56.112Z,9.62
2022-10-31T01:24:22.574Z,9.49
2022-10-31T01:26:48.869Z,9.40
2022-10-31T01:29:15.248Z,9.33
2022-10-31T01:31:41.596Z,9.26
2022-10-31T01:34:08.388Z,9.23
2022-10-31T01:36:37.631Z,9.34
2022-10-31T01:39:10.984Z,9.47
2022-10-31T01:41:39.954Z,9.52
2022-10-31T01:44:15.229Z,9.56
2022-10-31T01:46:43.158Z,9.54
2022-10-31T01:49:14.621Z,9.50
2022-10-31T01:51:48.670Z,9.47
2022-10-31T01:54:19.809Z,9.41
2022-10-31T01:56:51.048Z,9.32
2022-10-31T01:59:20.439Z,9.22
2022-10-31T02:01:48.883Z,9.10
2022-10-31T02:04:16.127Z,8.99
2022-10-31T02:06:50.718Z,8.95
2022-10-31T02:09:21.698Z,8.92
2022-10-31T02:11:48.121Z,8.87
2022-10-31T02:14:14.518Z,8.84
2022-10-31T02:16:40.867Z,8.68
2022-10-31T02:19:13.592Z,8.62
2022-10-31T02:21:52.307Z,8.57
2022-10-31T02:24:32.047Z,8.63
2022-10-31T02:27:37.806Z,8.65
2022-10-31T02:30:06.996Z,8.76
2022-10-31T02:32:49.693Z,8.87
2022-10-31T02:35:40.623Z,8.93
2022-10-31T02:38:47.728Z,8.98
2022-10-31T02:41:24.157Z,8.96
2022-10-31T02:44:13.384Z,8.93
2022-10-31T02:46:51.863Z,8.88
2022-10-31T02:49:33.473Z,8.85
2022-10-31T02:51:59.925Z,8.73
2022-10-31T02:54:29.236Z,8.68
2022-10-31T02:57:04.264Z,8.65
2022-10-31T02:59:34.386Z,8.66
2022-10-31T03:02:36.518Z,8.64
2022-10-31T03:05:28.657Z,8.62
2022-10-31T03:08:12.722Z,8.50
2022-10-31T03:10:52.239Z,8.48
2022-10-31T03:13:24.624Z,8.45
2022-10-31T03:15:55.257Z,8.45
2022-10-31T03:18:30.799Z,8.39
2022-10-31T03:21:23.469Z,8.37
2022-10-31T03:23:53.213Z,8.42
2022-10-31T03:26:22.102Z,8.32
2022-10-31T03:29:03.946Z,8.35
2022-10-31T03:31:42.330Z,8.37
2022-10-31T03:34:10.746Z,8.40
2022-10-31T03:36:39.936Z,8.49
2022-10-31T03:39:10.569Z,8.55
2022-10-31T03:41:43.601Z,8.61
2022-10-31T03:44:15.633Z,8.68
2022-10-31T03:46:43.913Z,8.68
2022-10-31T03:49:11.352Z,8.63
2022-10-31T03:51:50.481Z,8.62
2022-10-31T03:54:19.895Z,8.63
2022-10-31T03:57:00.894Z,8.65
2022-10-31T03:59:38.011Z,8.62
2022-10-31T04:02:08.764Z,8.55
2022-10-31T04:04:36.346Z,8.53
2022-10-31T04:07:05.202Z,8.49
2022-10-31T04:09:35.875Z,8.45
2022-10-31T04:12:06.375Z,8.37
2022-10-31T04:14:36.165Z,8.26
2022-10-31T04:17:05.491Z,8.23
2022-10-31T04:19:33.891Z,8.21
2022-10-31T04:22:00.630Z,8.09
2022-10-31T04:24:27.133Z,7.98
2022-10-31T04:26:53.471Z,7.88
2022-10-31T04:29:19.791Z,7.83
2022-10-31T04:31:46.211Z,7.83
2022-10-31T04:34:12.676Z,7.80
2022-10-31T04:36:39.090Z,7.77
2022-10-31T04:39:05.435Z,7.73
2022-10-31T04:41:31.857Z,7.72
2022-10-31T04:43:58.209Z,7.75
2022-10-31T04:46:24.541Z,7.82
2022-10-31T04:48:50.902Z,7.75
2022-10-31T04:51:17.246Z,7.78
2022-10-31T04:53:43.576Z,7.83
2022-10-31T04:56:09.919Z,7.83
2022-10-31T04:58:36.334Z,7.89
2022-10-31T05:01:02.832Z,7.97
2022-10-31T05:03:29.311Z,7.98
2022-10-31T05:05:55.655Z,7.97
2022-10-31T05:08:21.987Z,7.97
2022-10-31T05:10:48.383Z,7.94
2022-10-31T05:13:16.405Z,7.89
2022-10-31T05:15:42.815Z,7.85
2022-10-31T05:18:09.638Z,7.85
2022-10-31T05:20:35.968Z,7.87
2022-10-31T05:23:02.319Z,7.89
2022-10-31T05:25:29.658Z,7.85
2022-10-31T05:27:57.512Z,7.81
2022-10-31T05:30:27.309Z,7.77
2022-10-31T05:32:53.827Z,7.77
2022-10-31T05:35:24.850Z,7.73
2022-10-31T05:37:51.286Z,7.63
2022-10-31T05:40:19.248Z,7.61
2022-10-31T05:42:46.266Z,7.62
2022-10-31T05:45:16.184Z,7.49
2022-10-31T05:47:42.870Z,7.36
2022-10-31T05:50:10.180Z,7.31
2022-10-31T05:52:36.918Z,7.33
2022-10-31T05:55:03.922Z,7.36
2022-10-31T05:57:30.371Z,7.33
2022-10-31T05:59:56.768Z,7.30
2022-10-31T06:02:23.135Z,7.32
2022-10-31T06:04:49.606Z,7.25
2022-10-31T06:07:16.075Z,7.28
2022-10-31T06:09:42.546Z,7.22
2022-10-31T06:12:08.907Z,7.17
2022-10-31T06:14:35.332Z,7.17
2022-10-31T06:17:01.736Z,7.20
2022-10-31T06:19:29.165Z,7.30
2022-10-31T06:21:55.527Z,7.35
2022-10-31T06:24:21.905Z,7.40
2022-10-31T06:26:48.350Z,7.44
2022-10-31T06:29:14.725Z,7.48
2022-10-31T06:31:41.149Z,7.52
2022-10-31T06:34:07.606Z,7.65
2022-10-31T06:36:34.058Z,7.77
2022-10-31T06:39:01.331Z,7.94
2022-10-31T06:41:27.653Z,8.04
2022-10-31T06:43:54.062Z,8.07
2022-10-31T06:46:20.412Z,8.15
2022-10-31T06:48:46.754Z,8.29
2022-10-31T06:51:13.075Z,8.37
2022-10-31T06:53:39.449Z,8.45
2022-10-31T06:56:05.963Z,8.38
2022-10-31T06:58:33.427Z,8.32
2022-10-31T07:01:01.285Z,8.28
2022-10-31T07:03:27.667Z,8.25
2022-10-31T07:05:58.405Z,8.52
2022-10-31T07:08:25.309Z,8.33
2022-10-31T07:10:54.220Z,8.60
2022-10-31T07:13:26.499Z,8.51
2022-10-31T07:16:01.826Z,8.37
2022-10-31T07:18:28.624Z,8.38
2022-10-31T07:20:55.153Z,8.40
2022-10-31T07:23:22.055Z,8.34
2022-10-31T07:25:48.493Z,8.28
2022-10-31T07:28:14.928Z,8.19
2022-10-31T07:30:41.354Z,8.37
2022-10-31T07:33:07.820Z,8.51
2022-10-31T07:35:35.687Z,8.70
2022-10-31T07:38:13.185Z,8.85
2022-10-31T07:40:40.257Z,8.84
2022-10-31T07:43:11.557Z,9.02
2022-10-31T07:45:40.338Z,8.71
2022-10-31T07:48:06.982Z,8.91
2022-10-31T07:50:37.240Z,9.22
2022-10-31T07:53:05.214Z,9.31
2022-10-31T07:55:31.756Z,9.46
2022-10-31T07:58:00.336Z,9.29
2022-10-31T08:00:27.752Z,9.25
2022-10-31T08:03:02.835Z,9.32
2022-10-31T08:05:30.725Z,9.54
2022-10-31T08:07:58.888Z,9.73
2022-10-31T08:10:26.733Z,9.85
2022-10-31T08:13:07.738Z,9.42
2022-10-31T08:15:40.819Z,9.50
2022-10-31T08:18:11.360Z,9.83
2022-10-31T08:20:37.699Z,10.01
2022-10-31T08:23:05.953Z,10.09
2022-10-31T08:25:38.228Z,9.85
2022-10-31T08:28:06.552Z,9.79
2022-10-31T08:30:35.231Z,9.92
2022-10-31T08:33:07.662Z,9.83
2022-10-31T08:35:34.454Z,9.74
2022-10-31T08:38:01.610Z,10.01
2022-10-31T08:40:33.068Z,10.03
2022-10-31T08:43:04.764Z,9.83
2022-10-31T08:45:33.201Z,10.04
2022-10-31T08:48:01.778Z,10.19
2022-10-31T08:50:30.602Z,10.05
2022-10-31T08:53:08.758Z,10.09
2022-10-31T08:55:36.500Z,10.17
2022-10-31T08:58:07.703Z,10.15
2022-10-31T09:00:35.502Z,10.44
2022-10-31T09:03:06.517Z,10.29
2022-10-31T09:05:33.850Z,10.43
2022-10-31T09:08:02.533Z,10.41
2022-10-31T09:10:30.345Z,10.46
2022-10-31T09:13:04.998Z,10.61
2022-10-31T09:15:31.418Z,10.57
2022-10-31T09:17:57.961Z,10.77
2022-10-31T09:20:24.482Z,10.77
2022-10-31T09:23:04.176Z,11.01
2022-10-31T09:25:30.672Z,11.14
2022-10-31T09:27:59.018Z,10.99
2022-10-31T09:30:27.430Z,10.94
2022-10-31T09:33:05.164Z,10.86
2022-10-31T09:35:31.786Z,11.04
2022-10-31T09:38:04.600Z,11.29
2022-10-31T09:40:36.630Z,11.44
2022-10-31T09:43:20.158Z,11.30
2022-10-31T09:46:02.778Z,11.46
2022-10-31T09:48:45.352Z,11.53
2022-10-31T09:51:41.331Z,11.56
2022-10-31T09:54:19.492Z,11.86
2022-10-31T09:56:46.018Z,12.14
2022-10-31T09:59:22.060Z,11.76
2022-10-31T10:01:54.375Z,11.80
2022-10-31T10:04:44.597Z,12.58
2022-10-31T10:07:33.685Z,12.19
2022-10-31T10:10:15.301Z,12.53
2022-10-31T10:12:53.772Z,12.73
2022-10-31T10:15:51.507Z,13.23
2022-10-31T10:18:23.645Z,13.13
2022-10-31T10:21:04.708Z,12.95
2022-10-31T10:24:13.783Z,12.98
2022-10-31T10:26:50.390Z,13.17
2022-10-31T10:29:33.524Z,13.13
2022-10-31T10:32:06.503Z,12.86
2022-10-31T10:34:39.628Z,12.58
2022-10-31T10:37:18.108Z,12.71
2022-10-31T10:39:47.810Z,12.98
2022-10-31T10:42:34.785Z,13.02
2022-10-31T10:45:37.655Z,13.07
2022-10-31T10:48:15.682Z,13.28
2022-10-31T10:50:48.828Z,13.45
2022-10-31T10:53:32.760Z,13.64
2022-10-31T10:56:17.568Z,13.44
2022-10-31T10:58:44.076Z,13.67
2022-10-31T11:03:43.115Z,13.35
2022-10-31T11:06:26.737Z,13.34
2022-10-31T11:08:53.858Z,13.37
2022-10-31T11:11:28.998Z,13.57
2022-10-31T11:14:12.413Z,13.71
2022-10-31T11:16:41.520Z,13.79
2022-10-31T11:19:19.707Z,13.83
2022-10-31T11:21:53.734Z,13.50
2022-10-31T11:24:24.028Z,13.66
2022-10-31T11:26:51.721Z,14.17
2022-10-31T11:29:22.770Z,14.37
2022-10-31T11:31:55.974Z,14.52
2022-10-31T11:34:36.890Z,15.04
2022-10-31T11:37:14.629Z,15.47
2022-10-31T11:39:44.189Z,17.83
2022-10-31T11:42:10.980Z,19.83
2022-10-31T11:44:42.145Z,19.96
2022-10-31T11:47:16.186Z,18.93
2022-10-31T11:49:45.871Z,18.66
2022-10-31T11:52:25.329Z,18.60
2022-10-31T11:54:56.993Z,18.61
2022-10-31T11:57:28.804Z,19.96
2022-10-31T12:00:16.488Z,19.60
2022-10-31T12:02:43.010Z,18.88
2022-10-31T12:05:17.904Z,20.77
2022-10-31T12:07:44.789Z,21.00
2022-10-31T12:10:12.393Z,19.84
2022-10-31T12:13:07.889Z,19.80
2022-10-31T12:15:37.513Z,19.56
2022-10-31T12:18:23.443Z,19.60
2022-10-31T12:21:06.801Z,19.12
2022-10-31T12:23:47.962Z,18.63
2022-10-31T12:26:43.734Z,18.59
2022-10-31T12:29:18.478Z,18.29
2022-10-31T12:32:14.911Z,18.47
2022-10-31T12:35:19.038Z,17.63
2022-10-31T12:38:02.361Z,17.56
2022-10-31T12:40:57.135Z,17.97
2022-10-31T12:43:37.581Z,18.04
2022-10-31T12:46:09.149Z,18.15
2022-10-31T12:48:57.120Z,18.55
2022-10-31T12:51:46.235Z,18.48
2022-10-31T12:54:50.946Z,19.19
2022-10-31T12:57:37.035Z,19.43
2022-10-31T13:00:25.266Z,20.04
2022-10-31T13:03:22.746Z,19.96
2022-10-31T13:05:58.194Z,20.80
2022-10-31T13:08:34.220Z,20.06
2022-10-31T13:11:07.995Z,19.34
2022-10-31T13:13:38.798Z,18.11
2022-10-31T13:16:09.870Z,17.50
2022-10-31T13:18:43.495Z,17.62
2022-10-31T13:21:16.088Z,17.02
2022-10-31T13:23:50.859Z,17.11
2022-10-31T13:26:47.985Z,17.09
2022-10-31T13:29:21.239Z,17.02
2022-10-31T13:31:47.882Z,16.85
2022-10-31T13:34:24.041Z,16.68
2022-10-31T13:37:02.899Z,16.49
2022-10-31T13:39:42.762Z,16.39
2022-10-31T13:42:37.016Z,16.20
2022-10-31T13:45:15.249Z,15.94
2022-10-31T13:47:43.318Z,15.47
2022-10-31T13:50:19.385Z,15.48
2022-10-31T13:52:46.362Z,15.51
2022-10-31T13:55:37.745Z,15.52
2022-10-31T13:58:30.491Z,15.32
2022-10-31T14:01:20.533Z,15.11
2022-10-31T14:04:10.954Z,15.04
2022-10-31T14:07:06.209Z,14.90
2022-10-31T14:09:51.056Z,15.05
2022-10-31T14:12:43.968Z,15.13
2022-10-31T14:15:10.269Z,15.16
2022-10-31T14:17:46.696Z,15.33
2022-10-31T14:20:13.022Z,16.80
2022-10-31T14:22:42.843Z,18.32
2022-10-31T14:25:35.387Z,19.88
2022-10-31T14:28:21.471Z,20.79
2022-10-31T14:30:56.185Z,21.38
2022-10-31T14:33:25.017Z,21.48
2022-10-31T14:35:54.327Z,20.90
2022-10-31T14:38:42.841Z,20.03
2022-10-31T14:41:35.607Z,19.49
2022-10-31T14:44:19.916Z,18.84
2022-10-31T14:47:10.715Z,18.08
2022-10-31T14:49:49.245Z,17.43
2022-10-31T14:52:18.037Z,16.88
2022-10-31T14:54:54.139Z,16.49
2022-10-31T14:57:29.493Z,16.27
2022-10-31T15:00:08.450Z,15.98
2022-10-31T15:02:51.897Z,15.91
2022-10-31T15:05:19.039Z,15.62
2022-10-31T15:07:56.905Z,15.47
2022-10-31T15:10:26.147Z,15.34
2022-10-31T15:12:53.125Z,15.14
2022-10-31T15:15:27.544Z,15.05
2022-10-31T15:17:56.830Z,14.89
2022-10-31T15:20:27.253Z,14.78
2022-10-31T15:22:57.196Z,14.70
2022-10-31T15:25:26.707Z,14.59
2022-10-31T15:27:53.743Z,14.59
2022-10-31T15:30:25.705Z,14.44
2022-10-31T15:32:58.150Z,14.24
2022-10-31T15:35:28.884Z,14.10
2022-10-31T15:37:56.174Z,14.01
2022-10-31T15:40:25.866Z,13.93
2022-10-31T15:42:57.026Z,13.80
2022-10-31T15:45:29.392Z,13.66
2022-10-31T15:48:02.822Z,13.62
2022-10-31T15:50:41.380Z,13.53
2022-10-31T15:53:25.363Z,13.45
2022-10-31T15:55:55.802Z,13.37
2022-10-31T15:58:23.273Z,13.31
2022-10-31T16:01:04.444Z,13.28
2022-10-31T16:03:33.452Z,13.19
2022-10-31T16:06:02.211Z,13.12
2022-10-31T16:08:31.375Z,13.03
2022-10-31T16:11:00.642Z,12.96
2022-10-31T16:13:30.429Z,12.85
2022-10-31T16:16:29.000Z,12.74
2022-10-31T16:18:50.550Z,12.68
2022-10-31T16:21:25.086Z,12.62
2022-10-31T16:23:58.190Z,12.61
2022-10-31T16:26:26.065Z,12.58
2022-10-31T16:29:03.351Z,12.55
2022-10-31T16:31:40.293Z,12.54
2022-10-31T16:34:15.451Z,12.49
2022-10-31T16:36:42.700Z,12.43
2022-10-31T16:39:09.093Z,12.37
2022-10-31T16:41:39.987Z,12.38
2022-10-31T16:44:12.512Z,12.39
2022-10-31T16:46:38.952Z,12.41
2022-10-31T16:49:05.290Z,12.41
2022-10-31T16:51:31.685Z,12.44
2022-10-31T16:53:58.102Z,12.39
2022-10-31T16:56:33.334Z,12.44
2022-10-31T16:59:03.558Z,12.40
2022-10-31T17:01:30.688Z,12.36
2022-10-31T17:03:57.174Z,12.31
2022-10-31T17:06:23.596Z,12.28
2022-10-31T17:08:50.035Z,12.27
2022-10-31T17:11:19.789Z,12.30
2022-10-31T17:13:46.361Z,12.25
2022-10-31T17:16:14.484Z,12.19
2022-10-31T17:18:41.537Z,12.20
2022-10-31T17:21:18.677Z,12.14
2022-10-31T17:23:45.152Z,12.02
2022-10-31T17:26:11.759Z,11.92
2022-10-31T17:28:38.206Z,11.86
2022-10-31T17:31:04.651Z,11.80
2022-10-31T17:33:31.014Z,11.85
2022-10-31T17:35:57.379Z,11.85
2022-10-31T17:38:23.786Z,11.93
2022-10-31T17:40:50.193Z,11.86
2022-10-31T17:43:16.578Z,11.87
2022-10-31T17:45:43.005Z,11.83
2022-10-31T17:48:12.438Z,11.79
2022-10-31T17:50:38.980Z,11.76
2022-10-31T17:53:05.466Z,11.61
2022-10-31T17:55:36.049Z,11.48
2022-10-31T17:58:04.384Z,11.40
2022-10-31T18:00:30.751Z,11.35
2022-10-31T18:02:57.223Z,11.29
2022-10-31T18:05:23.629Z,11.23
2022-10-31T18:07:51.160Z,11.24
2022-10-31T18:10:17.656Z,11.17
2022-10-31T18:12:44.048Z,11.12
2022-10-31T18:15:10.791Z,11.08
2022-10-31T18:17:40.984Z,11.13
2022-10-31T18:20:09.511Z,11.13
2022-10-31T18:22:35.867Z,11.14
2022-10-31T18:25:03.348Z,11.14
2022-10-31T18:27:29.690Z,11.07
2022-10-31T18:29:56.292Z,11.01
2022-10-31T18:32:22.658Z,10.98
2022-10-31T18:34:49.023Z,11.03
2022-10-31T18:37:15.436Z,11.07
2022-10-31T18:39:41.882Z,10.98
2022-10-31T18:42:08.197Z,10.88
2022-10-31T18:44:34.658Z,10.81
2022-10-31T18:47:01.090Z,10.79
2022-10-31T18:49:32.435Z,10.74
2022-10-31T18:51:59.664Z,10.74
2022-10-31T18:54:26.028Z,10.66
2022-10-31T18:56:52.373Z,10.68
2022-10-31T18:59:18.821Z,10.63
2022-10-31T19:01:45.213Z,10.57
2022-10-31T19:04:11.966Z,10.54
2022-10-31T19:06:38.308Z,10.55
2022-10-31T19:09:09.132Z,10.55
2022-10-31T19:11:38.070Z,10.57
2022-10-31T19:14:05.535Z,10.58
2022-10-31T19:16:33.371Z,10.57
2022-10-31T19:19:00.014Z,10.53
2022-10-31T19:21:27.890Z,10.47
2022-10-31T19:23:56.151Z,10.41
2022-10-31T19:26:22.582Z,10.32
2022-10-31T19:28:49.006Z,10.24
2022-10-31T19:31:15.866Z,10.26
2022-10-31T19:33:42.268Z,10.15
2022-10-31T19:36:14.061Z,10.16
2022-10-31T19:38:43.667Z,10.09
2022-10-31T19:41:22.417Z,10.08
2022-10-31T19:43:49.765Z,10.01
2022-10-31T19:46:22.854Z,9.95
2022-10-31T19:49:00.993Z,9.91
2022-10-31T19:51:27.809Z,9.98
2022-10-31T19:53:54.529Z,10.04
2022-10-31T19:56:23.662Z,10.07
2022-10-31T19:58:50.124Z,10.06
2022-10-31T20:01:25.698Z,10.09
2022-10-31T20:03:52.143Z,10.08
2022-10-31T20:06:24.767Z,10.20
2022-10-31T20:08:52.295Z,10.25
2022-10-31T20:11:18.966Z,10.26
2022-10-31T20:13:45.397Z,10.19
2022-10-31T20:16:13.337Z,10.12
2022-10-31T20:18:40.392Z,10.06
2022-10-31T20:21:12.324Z,9.99
2022-10-31T20:23:39.846Z,9.99
2022-10-31T20:26:09.038Z,9.99
2022-10-31T20:28:39.954Z,9.95
2022-10-31T20:31:12.670Z,9.96
2022-10-31T20:33:39.381Z,9.92
2022-10-31T20:36:08.003Z,9.91
2022-10-31T20:38:38.835Z,9.83
2022-10-31T20:41:07.734Z,9.80
2022-10-31T20:43:35.904Z,9.86
2022-10-31T20:46:10.850Z,9.88
2022-10-31T20:48:37.189Z,9.79
2022-10-31T20:51:06.819Z,9.78
2022-10-31T20:53:34.045Z,9.84
2022-10-31T20:56:06.893Z,9.85
2022-10-31T20:58:35.188Z,9.96
2022-10-31T21:01:03.997Z,10.09
2022-10-31T21:03:31.494Z,10.24
2022-10-31T21:06:00.649Z,10.21
2022-10-31T21:08:28.642Z,10.02
2022-10-31T21:10:55.812Z,9.80
2022-10-31T21:13:22.549Z,9.70
2022-10-31T21:15:59.840Z,9.61
2022-10-31T21:18:26.784Z,9.50
2022-10-31T21:20:53.194Z,9.61
2022-10-31T21:23:19.570Z,9.86
2022-10-31T21:25:45.938Z,10.13
2022-10-31T21:28:14.385Z,10.34
2022-10-31T21:30:42.775Z,10.42
2022-10-31T21:33:09.250Z,10.47
2022-10-31T21:35:35.798Z,10.53
2022-10-31T21:38:03.512Z,10.43
2022-10-31T21:40:30.496Z,10.23
2022-10-31T21:42:57.386Z,10.06
2022-10-31T21:45:24.317Z,9.93
2022-10-31T21:47:50.914Z,10.14
2022-10-31T21:50:17.613Z,10.10
2022-10-31T21:52:44.169Z,10.24
2022-10-31T21:55:10.547Z,10.34
2022-10-31T21:57:37.093Z,10.31
2022-10-31T22:00:06.992Z,10.15
2022-10-31T22:02:33.350Z,10.23
2022-10-31T22:05:00.005Z,10.20
2022-10-31T22:07:26.445Z,10.25
2022-10-31T22:09:52.926Z,10.42
2022-10-31T22:12:19.365Z,10.63
2022-10-31T22:14:45.762Z,10.66
2022-10-31T22:17:12.089Z,10.52
2022-10-31T22:19:38.537Z,10.40
2022-10-31T22:22:04.864Z,10.33
2022-10-31T22:24:31.249Z,10.34
2022-10-31T22:26:57.625Z,10.33
2022-10-31T22:29:23.968Z,10.27
2022-10-31T22:31:57.180Z,10.34
2022-10-31T22:34:26.087Z,10.45
2022-10-31T22:36:54.507Z,10.56
2022-10-31T22:39:20.905Z,10.47
2022-10-31T22:41:47.331Z,10.44
2022-10-31T22:44:13.777Z,10.50
2022-10-31T22:46:40.310Z,10.57
2022-10-31T22:49:11.018Z,10.52
2022-10-31T22:51:39.640Z,10.52
2022-10-31T22:54:16.202Z,10.52
2022-10-31T22:56:43.060Z,10.44
2022-10-31T22:59:13.474Z,10.38
2022-10-31T23:01:39.945Z,10.32
2022-10-31T23:04:06.614Z,10.08
2022-10-31T23:06:33.651Z,10.03
2022-10-31T23:09:01.365Z,9.95
2022-10-31T23:11:35.273Z,9.90
2022-10-31T23:14:11.982Z,9.97
2022-10-31T23:16:38.452Z,10.01
2022-10-31T23:19:17.995Z,10.05
2022-10-31T23:21:57.186Z,10.06
2022-10-31T23:24:35.488Z,10.03
2022-10-31T23:27:10.881Z,10.09
2022-10-31T23:29:47.061Z,10.07
2022-10-31T23:32:25.927Z,10.03
2022-10-31T23:34:55.154Z,9.99
2022-10-31T23:37:26.953Z,9.95
2022-10-31T23:39:53.606Z,9.98
2022-10-31T23:42:20.477Z,9.97
2022-10-31T23:44:48.077Z,9.95
2022-10-31T23:47:15.478Z,9.97
2022-10-31T23:49:41.842Z,9.85
2022-10-31T23:52:08.512Z,9.86
2022-10-31T23:54:35.283Z,9.88
2022-10-31T23:57:02.143Z,9.85
2022-10-31T23:59:31.662Z,9.81
